Time;durP1;ratioP1;P1;durP2;ratioP2;P2;SDS_P1;SDS_P2;PMS_P1;PMS_P2;Temp;Humidity;BMP_temperature;BMP_pressure;BME280_temperature;BME280_humidity;BME280_pressure;Samples;Min_cycle;Max_cycle;Signal;HPM_P1;HPM_P2
2022/07/24 00:02:00;;;;;;;142.30;130.68;;;19.50;84.30;;;;;;5015519;28;20134;-79
2022/07/24 00:04:27;;;;;;;144.07;132.50;;;19.40;84.60;;;;;;5033704;28;20049;-79
2022/07/24 00:06:54;;;;;;;142.45;130.93;;;19.40;84.80;;;;;;5031976;28;20056;-78
2022/07/24 00:09:21;;;;;;;143.98;132.18;;;19.30;84.90;;;;;;5033862;28;20049;-79
2022/07/24 00:11:47;;;;;;;142.90;131.45;;;19.30;85.10;;;;;;5032282;28;20053;-80
2022/07/24 00:14:14;;;;;;;142.05;130.63;;;19.30;85.30;;;;;;5032076;28;20049;-79
2022/07/24 00:16:41;;;;;;;141.82;130.43;;;19.20;85.50;;;;;;5015966;28;20060;-78
2022/07/24 00:19:09;;;;;;;143.07;131.68;;;19.20;85.90;;;;;;5032116;28;20064;-78
2022/07/24 00:21:36;;;;;;;142.60;130.77;;;19.20;86.10;;;;;;5032495;28;20058;-79
2022/07/24 00:24:04;;;;;;;143.70;131.80;;;19.20;86.20;;;;;;5033676;28;20085;-78
2022/07/24 00:26:31;;;;;;;142.00;130.30;;;19.10;86.40;;;;;;5015881;28;20077;-78
2022/07/24 00:28:58;;;;;;;142.02;130.52;;;19.10;86.60;;;;;;5033302;28;20057;-78
2022/07/24 00:31:25;;;;;;;142.15;130.52;;;19.10;86.80;;;;;;5033633;28;20189;-78
2022/07/24 00:33:52;;;;;;;143.98;132.48;;;19.00;86.90;;;;;;5032113;28;20056;-79
2022/07/24 00:36:20;;;;;;;142.07;130.57;;;19.00;87.20;;;;;;5032697;28;20571;-78
2022/07/24 00:38:47;;;;;;;145.13;133.25;;;19.00;87.20;;;;;;5032205;28;20056;-78
2022/07/24 00:41:14;;;;;;;144.32;132.43;;;19.00;87.30;;;;;;5033344;28;20046;-79
2022/07/24 00:44:01;;;;;;;145.48;133.32;;;19.00;87.50;;;;;;5032123;28;20064;-78
2022/07/24 00:46:29;;;;;;;144.35;132.57;;;18.90;87.00;;;;;;5033521;28;20056;-79
2022/07/24 00:48:56;;;;;;;144.90;133.10;;;18.90;87.80;;;;;;5033325;28;20128;-78
2022/07/24 00:51:24;;;;;;;145.63;133.82;;;18.90;87.90;;;;;;5031665;28;20044;-78
2022/07/24 00:53:52;;;;;;;144.80;132.90;;;18.90;88.00;;;;;;5031908;28;20049;-78
2022/07/24 00:56:19;;;;;;;144.60;132.70;;;18.80;88.00;;;;;;5032006;28;20069;-78
2022/07/24 00:58:46;;;;;;;145.15;133.15;;;18.80;88.10;;;;;;5031914;28;20053;-79
2022/07/24 01:01:14;;;;;;;142.85;130.98;;;18.80;88.20;;;;;;5032072;28;20058;-78
2022/07/24 01:03:41;;;;;;;145.38;133.27;;;18.70;88.40;;;;;;5031581;28;20137;-78
2022/07/24 01:06:08;;;;;;;143.77;132.07;;;18.70;88.30;;;;;;5031336;28;20599;-78
2022/07/24 01:08:37;;;;;;;144.20;132.40;;;18.70;88.20;;;;;;5032951;28;20064;-79
2022/07/24 01:11:05;;;;;;;145.30;133.27;;;18.70;88.30;;;;;;5031948;28;20053;-79
2022/07/24 01:13:40;;;;;;;145.00;132.93;;;18.60;88.30;;;;;;5031587;28;20042;-79
2022/07/24 01:16:07;;;;;;;145.68;133.88;;;18.60;88.40;;;;;;5031209;28;20053;-78
2022/07/24 01:18:34;;;;;;;145.07;133.13;;;18.60;88.50;;;;;;5031640;28;20057;-79
2022/07/24 01:21:03;;;;;;;145.93;133.93;;;18.60;88.60;;;;;;5036441;28;20046;-78
2022/07/24 01:23:30;;;;;;;145.73;133.77;;;18.60;88.70;;;;;;5035006;28;20579;-79
2022/07/24 01:25:57;;;;;;;145.90;134.00;;;18.50;88.60;;;;;;5018435;28;20050;-78
2022/07/24 01:28:24;;;;;;;143.60;131.93;;;18.50;88.80;;;;;;5034827;28;20053;-77
2022/07/24 01:30:52;;;;;;;145.35;133.35;;;18.50;88.70;;;;;;5036219;28;20050;-78
2022/07/24 01:33:19;;;;;;;144.25;132.18;;;18.50;88.60;;;;;;5034532;28;20115;-78
2022/07/24 01:35:46;;;;;;;144.93;133.00;;;18.50;88.80;;;;;;5034850;28;20045;-78
2022/07/24 01:38:14;;;;;;;145.32;133.30;;;18.40;88.90;;;;;;5017830;28;20147;-79
2022/07/24 01:40:41;;;;;;;143.45;131.65;;;18.40;89.30;;;;;;5035083;28;20046;-79
2022/07/24 01:43:08;;;;;;;143.70;131.77;;;18.40;89.50;;;;;;5034819;28;20176;-78
2022/07/24 01:45:35;;;;;;;145.13;133.13;;;18.30;89.60;;;;;;5034756;28;20049;-79
2022/07/24 01:48:03;;;;;;;143.10;130.85;;;18.30;89.60;;;;;;5018116;28;20069;-78
2022/07/24 01:50:31;;;;;;;142.88;130.93;;;18.30;89.80;;;;;;5017784;28;20516;-78
2022/07/24 01:52:58;;;;;;;143.85;131.95;;;18.30;89.90;;;;;;5034286;28;20564;-78
2022/07/24 01:55:26;;;;;;;144.65;132.55;;;18.30;89.90;;;;;;5034787;28;20163;-79
2022/07/24 01:57:53;;;;;;;142.23;130.32;;;18.20;89.60;;;;;;5034552;28;20052;-78
2022/07/24 02:00:20;;;;;;;143.10;131.25;;;18.20;89.70;;;;;;5034591;28;20050;-78
2022/07/24 02:02:47;;;;;;;144.93;132.63;;;18.20;89.70;;;;;;5035663;28;20050;-78
2022/07/24 02:05:15;;;;;;;144.32;132.13;;;18.20;90.00;;;;;;5034505;28;20054;-79
2022/07/24 02:07:43;;;;;;;143.07;131.23;;;18.20;90.00;;;;;;5033892;28;20058;-79
2022/07/24 02:10:12;;;;;;;142.05;130.25;;;18.20;89.80;;;;;;5034561;28;20054;-79
2022/07/24 02:12:41;;;;;;;142.43;130.35;;;18.10;89.90;;;;;;5034562;28;20124;-79
2022/07/24 02:15:09;;;;;;;144.05;131.68;;;18.10;89.90;;;;;;5034131;28;20138;-78
2022/07/24 02:17:36;;;;;;;142.93;131.02;;;18.10;90.00;;;;;;5034117;28;20045;-78
2022/07/24 02:20:04;;;;;;;143.90;131.82;;;18.10;90.00;;;;;;5034649;28;20125;-78
2022/07/24 02:22:31;;;;;;;142.50;130.60;;;18.10;90.20;;;;;;5034111;28;20049;-78
2022/07/24 02:24:58;;;;;;;141.85;130.05;;;18.00;90.20;;;;;;5017806;28;20141;-78
2022/07/24 02:27:25;;;;;;;141.13;129.15;;;18.00;90.30;;;;;;5035252;28;20558;-78
2022/07/24 02:29:53;;;;;;;142.90;130.88;;;18.00;90.40;;;;;;5033581;28;20074;-78
2022/07/24 02:32:20;;;;;;;142.15;130.15;;;17.90;90.40;;;;;;5034169;28;20049;-78
2022/07/24 02:34:47;;;;;;;142.57;130.68;;;17.90;90.50;;;;;;5035427;28;20495;-78
2022/07/24 02:37:14;;;;;;;143.20;131.40;;;17.90;90.70;;;;;;5033929;28;20061;-79
2022/07/24 02:39:41;;;;;;;143.25;131.32;;;17.90;90.90;;;;;;5035246;28;20053;-79
2022/07/24 02:42:08;;;;;;;142.05;129.95;;;17.80;90.90;;;;;;5035093;28;20526;-78
2022/07/24 02:44:35;;;;;;;143.82;131.88;;;17.80;90.90;;;;;;5035384;28;20530;-78
2022/07/24 02:47:03;;;;;;;143.32;131.40;;;17.80;90.90;;;;;;5033836;28;20138;-78
2022/07/24 02:49:30;;;;;;;142.18;130.27;;;17.80;90.90;;;;;;5033671;28;20050;-78
2022/07/24 02:51:57;;;;;;;142.88;130.80;;;17.80;91.00;;;;;;5034914;28;20233;-78
2022/07/24 02:54:24;;;;;;;141.65;129.82;;;17.80;91.00;;;;;;5033780;28;20064;-78
2022/07/24 02:56:51;;;;;;;142.13;130.23;;;17.80;91.10;;;;;;5035049;28;20054;-78
2022/07/24 02:59:18;;;;;;;142.20;130.30;;;17.80;91.20;;;;;;5033742;28;20523;-79
2022/07/24 03:01:45;;;;;;;141.35;129.35;;;17.80;91.20;;;;;;5033601;28;20057;-78
2022/07/24 03:04:13;;;;;;;141.57;129.48;;;17.80;91.20;;;;;;5034587;28;20054;-78
2022/07/24 03:06:40;;;;;;;140.73;128.73;;;17.70;91.30;;;;;;5033343;28;20060;-78
2022/07/24 03:09:07;;;;;;;140.23;128.43;;;17.80;91.40;;;;;;5033088;28;20440;-78
2022/07/24 03:11:34;;;;;;;140.48;128.48;;;17.80;91.40;;;;;;5034966;28;20112;-78
2022/07/24 03:14:01;;;;;;;140.73;128.82;;;17.80;91.30;;;;;;5033571;28;21049;-78
2022/07/24 03:16:27;;;;;;;140.35;128.55;;;17.70;91.30;;;;;;5034311;28;20057;-78
2022/07/24 03:18:54;;;;;;;140.95;128.82;;;17.70;91.40;;;;;;5034489;28;20046;-78
2022/07/24 03:21:23;;;;;;;140.32;128.50;;;17.70;91.50;;;;;;5033284;28;20105;-78
2022/07/24 03:23:50;;;;;;;140.43;128.63;;;17.70;91.50;;;;;;5032868;28;20542;-78
2022/07/24 03:26:17;;;;;;;139.32;127.50;;;17.70;91.50;;;;;;5034460;28;20855;-78
2022/07/24 03:28:44;;;;;;;139.13;127.07;;;17.70;91.50;;;;;;5015907;28;20104;-78
2022/07/24 03:31:11;;;;;;;141.43;129.32;;;17.70;91.50;;;;;;5033253;28;20787;-79
2022/07/24 03:33:37;;;;;;;139.60;127.50;;;17.70;91.60;;;;;;5033352;28;20064;-78
2022/07/24 03:36:05;;;;;;;141.65;129.48;;;17.70;91.60;;;;;;5016540;28;20149;-78
2022/07/24 03:38:33;;;;;;;139.52;127.68;;;17.70;91.70;;;;;;5032634;28;20171;-78
2022/07/24 03:41:00;;;;;;;138.88;126.88;;;17.70;91.90;;;;;;5032275;28;20443;-78
2022/07/24 03:43:27;;;;;;;138.38;126.57;;;17.70;91.90;;;;;;5033361;28;20050;-78
2022/07/24 03:45:54;;;;;;;138.82;126.55;;;17.70;91.90;;;;;;5032900;28;20092;-78
2022/07/24 03:48:21;;;;;;;139.10;127.13;;;17.70;92.00;;;;;;5032464;28;20129;-78
2022/07/24 03:50:48;;;;;;;138.95;126.95;;;17.70;92.10;;;;;;5034011;28;20061;-78
2022/07/24 03:53:14;;;;;;;139.82;127.75;;;17.60;92.10;;;;;;5016021;28;20133;-78
2022/07/24 03:55:43;;;;;;;140.68;128.48;;;17.70;92.10;;;;;;5032732;28;20199;-78
2022/07/24 03:58:10;;;;;;;138.15;126.35;;;17.60;92.00;;;;;;5032448;28;20050;-78
2022/07/24 04:00:36;;;;;;;138.20;126.00;;;17.60;92.10;;;;;;5033761;28;20499;-78
2022/07/24 04:03:04;;;;;;;137.65;125.68;;;17.60;92.10;;;;;;5032649;28;20066;-78
2022/07/24 04:05:31;;;;;;;138.77;126.88;;;17.60;92.10;;;;;;5032104;28;20056;-78
2022/07/24 04:07:57;;;;;;;137.93;126.07;;;17.60;92.10;;;;;;5031889;28;20042;-78
2022/07/24 04:10:25;;;;;;;139.45;127.22;;;17.60;92.10;;;;;;5032418;28;20104;-78
2022/07/24 04:12:53;;;;;;;138.75;126.85;;;17.60;92.30;;;;;;5032527;28;20141;-78
2022/07/24 04:15:20;;;;;;;139.95;127.70;;;17.60;92.40;;;;;;5032501;28;20049;-78
2022/07/24 04:17:47;;;;;;;139.85;127.78;;;17.50;92.40;;;;;;5032173;28;20057;-79
2022/07/24 04:20:14;;;;;;;136.23;124.47;;;17.50;92.60;;;;;;5034016;28;20534;-78
2022/07/24 04:22:41;;;;;;;136.52;124.72;;;17.50;92.60;;;;;;5032554;28;20144;-78
2022/07/24 04:25:08;;;;;;;138.32;126.38;;;17.50;92.60;;;;;;5032361;28;20061;-78
2022/07/24 04:27:35;;;;;;;137.25;125.38;;;17.40;92.60;;;;;;5032108;28;20057;-78
2022/07/24 04:30:05;;;;;;;138.18;126.22;;;17.40;92.80;;;;;;5032412;28;20065;-78
2022/07/24 04:32:32;;;;;;;137.68;125.82;;;17.40;92.80;;;;;;5033458;28;20586;-78
2022/07/24 04:34:59;;;;;;;137.70;126.03;;;17.40;92.80;;;;;;5032338;28;20219;-78
2022/07/24 04:37:26;;;;;;;135.90;123.95;;;17.40;92.80;;;;;;5032191;28;20050;-79
2022/07/24 04:39:53;;;;;;;137.75;125.88;;;17.40;92.90;;;;;;5032317;28;20041;-78
2022/07/24 04:42:20;;;;;;;140.00;127.75;;;17.40;93.00;;;;;;5033140;28;20140;-78
2022/07/24 04:44:46;;;;;;;139.20;127.22;;;17.30;93.20;;;;;;5032122;28;20050;-78
2022/07/24 04:47:15;;;;;;;139.60;127.70;;;17.30;93.30;;;;;;5033065;28;20056;-78
2022/07/24 04:49:42;;;;;;;138.65;126.80;;;17.30;93.50;;;;;;5031990;28;20053;-78
2022/07/24 04:52:08;;;;;;;138.82;127.03;;;17.20;93.40;;;;;;5032083;28;20092;-78
2022/07/24 04:54:35;;;;;;;139.35;127.43;;;17.20;93.50;;;;;;5036216;28;20061;-78
2022/07/24 04:57:02;;;;;;;140.07;128.13;;;17.20;93.70;;;;;;5035213;28;20052;-78
2022/07/24 04:59:29;;;;;;;138.70;126.90;;;17.20;93.80;;;;;;5035561;28;20436;-78
2022/07/24 05:01:56;;;;;;;139.40;127.53;;;17.20;94.00;;;;;;5036757;28;20512;-79
2022/07/24 05:04:24;;;;;;;138.13;126.50;;;17.20;93.90;;;;;;5035396;28;20141;-79
2022/07/24 05:06:51;;;;;;;140.13;128.23;;;17.20;94.10;;;;;;5018075;28;20038;-78
2022/07/24 05:09:18;;;;;;;139.07;127.05;;;17.20;94.20;;;;;;5035545;28;20074;-79
2022/07/24 05:11:45;;;;;;;140.35;128.32;;;17.20;94.30;;;;;;5036881;28;20527;-79
2022/07/24 05:14:12;;;;;;;140.38;128.38;;;17.20;94.40;;;;;;5036554;28;20132;-79
2022/07/24 05:16:39;;;;;;;140.10;128.20;;;17.20;94.40;;;;;;5019247;28;20060;-78
2022/07/24 05:19:05;;;;;;;140.10;128.30;;;17.30;94.50;;;;;;5018322;28;20061;-78
2022/07/24 05:21:34;;;;;;;140.82;128.93;;;17.30;94.50;;;;;;5035286;28;20050;-79
2022/07/24 05:24:02;;;;;;;142.02;129.90;;;17.30;94.60;;;;;;5036185;28;20046;-78
2022/07/24 05:26:31;;;;;;;142.05;130.05;;;17.30;94.70;;;;;;5035230;28;20057;-79
2022/07/24 05:28:58;;;;;;;141.13;129.07;;;17.30;94.80;;;;;;5035151;28;20057;-79
2022/07/24 05:31:25;;;;;;;140.93;128.98;;;17.30;95.00;;;;;;5034731;28;20045;-79
2022/07/24 05:33:52;;;;;;;141.10;129.07;;;17.30;95.00;;;;;;5034983;28;20539;-79
2022/07/24 05:36:19;;;;;;;140.73;128.60;;;17.30;95.10;;;;;;5018608;28;20057;-79
2022/07/24 05:38:47;;;;;;;139.82;128.00;;;17.40;95.20;;;;;;5034880;28;20046;-79
2022/07/24 05:41:14;;;;;;;141.45;129.35;;;17.40;95.20;;;;;;5018152;28;20053;-78
2022/07/24 05:43:41;;;;;;;140.77;128.60;;;17.40;95.20;;;;;;5034308;28;20116;-79
2022/07/24 05:46:08;;;;;;;139.38;127.38;;;17.50;95.20;;;;;;5034768;28;20046;-79
2022/07/24 05:48:35;;;;;;;139.80;127.50;;;17.50;95.30;;;;;;5034616;28;20128;-78
2022/07/24 05:51:02;;;;;;;141.27;129.18;;;17.60;95.50;;;;;;5018402;28;20042;-79
2022/07/24 05:53:30;;;;;;;141.50;129.40;;;17.60;95.30;;;;;;5034721;28;20137;-79
2022/07/24 05:55:58;;;;;;;142.40;130.30;;;17.60;95.40;;;;;;5034940;28;20196;-79
2022/07/24 05:58:25;;;;;;;142.70;130.27;;;17.60;95.40;;;;;;5034546;28;20125;-79
2022/07/24 06:00:52;;;;;;;141.75;129.50;;;17.70;95.40;;;;;;5034538;28;20510;-79
2022/07/24 06:03:19;;;;;;;141.30;129.02;;;17.70;95.40;;;;;;5034841;28;20054;-79
2022/07/24 06:05:46;;;;;;;141.15;129.07;;;17.80;95.40;;;;;;5035286;28;20052;-79
2022/07/24 06:08:13;;;;;;;143.13;130.82;;;17.80;95.40;;;;;;5033597;28;20144;-79
2022/07/24 06:10:40;;;;;;;138.77;126.30;;;17.90;95.50;;;;;;5017585;28;20155;-79
2022/07/24 06:13:08;;;;;;;141.75;129.45;;;17.80;95.50;;;;;;5046688;28;20052;-79
2022/07/24 06:15:35;;;;;;;143.02;130.57;;;17.90;95.60;;;;;;5053787;28;20057;-80
2022/07/24 06:18:27;;;;;;;141.73;129.52;;;18.00;95.60;;;;;;5053955;28;20050;-80
2022/07/24 06:20:54;;;;;;;145.15;132.48;;;18.00;95.50;;;;;;5053043;28;20041;-80
2022/07/24 06:23:21;;;;;;;146.27;133.68;;;18.10;95.70;;;;;;5054144;28;20058;-80
2022/07/24 06:25:48;;;;;;;144.20;131.60;;;18.20;95.60;;;;;;5054290;28;20045;-80
2022/07/24 06:28:17;;;;;;;144.02;131.50;;;18.20;95.60;;;;;;5042297;28;20086;-80
2022/07/24 06:30:44;;;;;;;147.32;134.60;;;18.30;95.60;;;;;;5038349;28;20045;-80
2022/07/24 06:33:11;;;;;;;145.93;133.32;;;18.40;95.60;;;;;;5053471;28;20859;-80
2022/07/24 06:35:38;;;;;;;146.63;134.15;;;18.40;95.40;;;;;;5045798;28;20495;-80
2022/07/24 06:38:05;;;;;;;147.15;134.35;;;18.50;95.40;;;;;;5033054;28;20054;-80
2022/07/24 06:40:33;;;;;;;149.13;136.30;;;18.50;95.40;;;;;;5033799;28;20524;-79
2022/07/24 06:43:00;;;;;;;146.60;133.80;;;18.60;95.50;;;;;;5033359;28;20045;-80
2022/07/24 06:45:31;;;;;;;145.90;133.18;;;18.70;95.50;;;;;;5033477;28;20046;-80
2022/07/24 06:47:58;;;;;;;148.18;135.27;;;18.70;95.60;;;;;;5032120;28;20785;-80
2022/07/24 06:50:24;;;;;;;148.10;135.38;;;18.80;95.60;;;;;;5032578;28;20050;-80
2022/07/24 06:52:51;;;;;;;147.15;134.25;;;18.80;95.60;;;;;;5016695;28;20634;-80
2022/07/24 06:55:18;;;;;;;147.90;135.35;;;18.90;95.40;;;;;;5034727;28;20058;-80
2022/07/24 06:57:45;;;;;;;152.27;138.95;;;19.00;95.40;;;;;;5033250;28;20058;-81
2022/07/24 07:00:13;;;;;;;149.82;137.02;;;19.00;95.40;;;;;;5032036;28;20070;-80
2022/07/24 07:02:41;;;;;;;149.00;136.00;;;19.10;95.40;;;;;;5032164;28;20116;-81
2022/07/24 07:05:09;;;;;;;148.93;135.93;;;19.20;95.40;;;;;;5032773;28;20149;-80
2022/07/24 07:07:37;;;;;;;151.77;138.60;;;19.20;95.40;;;;;;5032146;28;20077;-80
2022/07/24 07:10:05;;;;;;;152.95;139.88;;;19.30;95.60;;;;;;5033076;28;20050;-80
2022/07/24 07:12:32;;;;;;;152.25;139.38;;;19.40;95.60;;;;;;5033761;28;20129;-76
2022/07/24 07:14:59;;;;;;;151.85;138.75;;;19.40;95.60;;;;;;5032597;28;20054;-79
2022/07/24 07:17:26;;;;;;;151.57;138.68;;;19.50;95.60;;;;;;5015058;28;20054;-79
2022/07/24 07:19:54;;;;;;;155.40;141.95;;;19.60;95.30;;;;;;5032784;28;20547;-78
2022/07/24 07:22:21;;;;;;;153.07;140.07;;;19.70;94.90;;;;;;5033315;28;20050;-79
2022/07/24 07:24:48;;;;;;;157.15;144.05;;;19.70;94.80;;;;;;5032566;28;20591;-80
2022/07/24 07:27:15;;;;;;;154.40;141.70;;;19.80;95.00;;;;;;5031286;28;20060;-80
2022/07/24 07:29:42;;;;;;;146.27;134.07;;;19.80;95.00;;;;;;5032966;28;20525;-78
2022/07/24 07:32:09;;;;;;;150.38;137.50;;;19.90;94.80;;;;;;5032597;28;20142;-77
2022/07/24 07:34:36;;;;;;;149.40;136.50;;;20.00;94.60;;;;;;5034822;28;20124;-77
2022/07/24 07:37:04;;;;;;;146.73;134.00;;;20.00;94.50;;;;;;5036548;28;20538;-79
2022/07/24 07:39:31;;;;;;;150.10;137.52;;;20.20;94.30;;;;;;5032570;28;20082;-77
2022/07/24 07:41:58;;;;;;;149.07;136.43;;;20.20;93.90;;;;;;5033745;28;20056;-77
2022/07/24 07:44:25;;;;;;;150.38;137.63;;;20.30;93.80;;;;;;5032251;28;20616;-77
2022/07/24 07:46:52;;;;;;;153.52;140.68;;;20.40;93.70;;;;;;5032023;28;20049;-80
2022/07/24 07:49:19;;;;;;;151.57;138.98;;;20.40;93.50;;;;;;5030611;28;20054;-79
2022/07/24 07:51:47;;;;;;;152.35;139.75;;;20.50;93.40;;;;;;5030876;28;20129;-80
2022/07/24 07:54:15;;;;;;;150.15;137.30;;;20.60;92.80;;;;;;5031023;28;20053;-79
2022/07/24 07:56:42;;;;;;;153.45;140.93;;;20.70;92.70;;;;;;5030921;28;20050;-80
2022/07/24 07:59:09;;;;;;;151.18;138.63;;;20.70;92.20;;;;;;5031347;28;20104;-81
2022/07/24 08:01:36;;;;;;;148.45;136.25;;;20.80;91.80;;;;;;5032745;28;20081;-81
2022/07/24 08:04:03;;;;;;;151.32;138.93;;;20.90;91.70;;;;;;5032479;28;20054;-82
2022/07/24 08:06:30;;;;;;;153.57;141.25;;;21.00;91.90;;;;;;5032257;28;20057;-80
2022/07/24 08:08:57;;;;;;;151.40;139.23;;;21.00;91.90;;;;;;5032273;28;20661;-81
2022/07/24 08:11:26;;;;;;;153.05;141.05;;;21.10;91.30;;;;;;5032136;28;20615;-83
2022/07/24 08:13:52;;;;;;;149.35;137.63;;;21.20;90.80;;;;;;5032821;28;20435;-80
2022/07/24 08:16:19;;;;;;;149.02;137.30;;;21.30;90.10;;;;;;5032145;28;20132;-80
2022/07/24 08:18:46;;;;;;;147.18;135.50;;;21.40;89.70;;;;;;5031620;28;20102;-79
2022/07/24 08:21:15;;;;;;;149.32;137.73;;;21.50;89.90;;;;;;5031524;28;20054;-78
2022/07/24 08:23:42;;;;;;;145.40;133.77;;;21.60;90.10;;;;;;5031569;28;20491;-80
2022/07/24 08:26:09;;;;;;;145.98;134.48;;;21.70;90.20;;;;;;5031615;28;20504;-79
2022/07/24 08:28:37;;;;;;;144.93;133.73;;;21.80;89.60;;;;;;5033884;28;20052;-79
2022/07/24 08:31:04;;;;;;;149.73;138.27;;;21.80;89.20;;;;;;5052272;28;20057;-80
2022/07/24 08:33:31;;;;;;;153.52;141.68;;;21.90;87.40;;;;;;5044803;28;20128;-80
2022/07/24 08:35:58;;;;;;;146.95;135.45;;;21.90;87.90;;;;;;5036324;28;20054;-78
2022/07/24 08:38:26;;;;;;;147.32;135.93;;;22.00;88.70;;;;;;5022313;28;20124;-76
2022/07/24 08:40:53;;;;;;;147.63;136.20;;;22.10;87.30;;;;;;5031910;28;20153;-79
2022/07/24 08:43:20;;;;;;;148.30;136.90;;;22.10;87.10;;;;;;5037311;28;20046;-80
2022/07/24 08:45:50;;;;;;;145.07;133.88;;;22.20;87.20;;;;;;5037838;28;20145;-80
2022/07/24 08:48:19;;;;;;;147.82;136.32;;;22.20;85.70;;;;;;5030585;28;20061;-78
2022/07/24 08:50:46;;;;;;;143.25;131.85;;;22.30;86.30;;;;;;5032295;28;20057;-79
2022/07/24 08:53:13;;;;;;;148.05;136.70;;;22.30;85.60;;;;;;5013622;28;20116;-79
2022/07/24 08:55:40;;;;;;;152.63;141.05;;;22.40;85.50;;;;;;5029870;28;20588;-80
2022/07/24 08:58:07;;;;;;;152.35;140.90;;;22.30;86.30;;;;;;5028985;28;20045;-78
2022/07/24 09:00:34;;;;;;;146.82;135.57;;;22.40;84.80;;;;;;5030936;28;20054;-78
2022/07/24 09:03:03;;;;;;;143.27;132.18;;;22.50;84.80;;;;;;5033072;28;20494;-81
2022/07/24 09:05:32;;;;;;;147.18;135.88;;;22.50;83.70;;;;;;5031588;28;20512;-78
2022/07/24 09:08:10;;;;;;;145.05;133.65;;;22.60;83.80;;;;;;5031478;28;20496;-79
2022/07/24 09:10:37;;;;;;;144.38;133.05;;;22.70;82.30;;;;;;5031279;28;20049;-79
2022/07/24 09:13:14;;;;;;;145.90;134.27;;;22.70;83.00;;;;;;5031379;28;20535;-82
2022/07/24 09:15:46;;;;;;;147.50;136.15;;;22.80;82.80;;;;;;5029783;28;20057;-80
2022/07/24 09:18:28;;;;;;;147.35;136.02;;;22.80;82.50;;;;;;5030904;28;20066;-81
2022/07/24 09:20:56;;;;;;;147.73;136.43;;;22.80;82.50;;;;;;5014640;28;20050;-78
2022/07/24 09:23:23;;;;;;;144.40;133.10;;;22.90;84.40;;;;;;5031216;28;20057;-78
2022/07/24 09:25:52;;;;;;;145.40;134.35;;;23.00;82.50;;;;;;5031243;28;20058;-79
2022/07/24 09:28:20;;;;;;;145.98;134.98;;;23.00;81.10;;;;;;5058198;28;20061;-77
2022/07/24 09:30:48;;;;;;;151.13;139.73;;;23.10;82.30;;;;;;5030319;28;20072;-77
2022/07/24 09:33:21;;;;;;;154.25;142.73;;;23.20;81.70;;;;;;5030943;28;20054;-77
2022/07/24 09:35:51;;;;;;;150.02;138.75;;;23.30;82.30;;;;;;5030652;28;20042;-79
2022/07/24 09:38:19;;;;;;;147.85;136.70;;;23.30;82.90;;;;;;5030448;28;20060;-78
2022/07/24 09:40:48;;;;;;;144.95;133.85;;;23.40;80.50;;;;;;5014680;28;20046;-78
2022/07/24 09:43:21;;;;;;;143.70;132.55;;;23.50;79.20;;;;;;5015825;28;20046;-79
2022/07/24 09:46:00;;;;;;;148.20;137.00;;;23.50;79.10;;;;;;5033226;28;20074;-77
2022/07/24 09:48:30;;;;;;;152.55;141.00;;;23.50;78.10;;;;;;5051972;28;20132;-79
2022/07/24 09:51:00;;;;;;;148.85;137.80;;;23.50;78.10;;;;;;5047119;28;20041;-79
2022/07/24 09:53:29;;;;;;;150.32;138.93;;;23.60;77.40;;;;;;5049922;28;20053;-78
2022/07/24 09:56:02;;;;;;;151.38;140.13;;;23.60;77.60;;;;;;5055281;28;20180;-78
2022/07/24 09:58:29;;;;;;;152.32;140.85;;;23.70;77.70;;;;;;5043469;28;20045;-76
2022/07/24 10:00:59;;;;;;;150.20;139.02;;;23.70;77.80;;;;;;5042466;28;20101;-77
2022/07/24 10:03:29;;;;;;;149.23;137.98;;;23.70;77.30;;;;;;5034293;28;20042;-77
2022/07/24 10:06:00;;;;;;;154.77;143.23;;;23.80;75.90;;;;;;5033536;28;20053;-77
2022/07/24 10:08:27;;;;;;;153.52;142.10;;;23.90;76.20;;;;;;5032905;28;20137;-78
2022/07/24 10:10:55;;;;;;;154.25;142.90;;;23.90;76.20;;;;;;5017235;28;20069;-78
2022/07/24 10:13:24;;;;;;;156.25;144.68;;;23.90;75.60;;;;;;5033906;28;20487;-78
2022/07/24 10:15:55;;;;;;;156.73;145.10;;;24.00;76.10;;;;;;5034114;28;20065;-81
2022/07/24 10:18:26;;;;;;;159.43;147.85;;;24.10;76.90;;;;;;5038865;28;20060;-81
2022/07/24 10:21:06;;;;;;;155.18;143.77;;;24.10;76.00;;;;;;5036917;28;20050;-79
2022/07/24 10:23:50;;;;;;;158.07;146.52;;;24.20;75.10;;;;;;5046271;28;20499;-78
2022/07/24 10:26:30;;;;;;;158.90;147.00;;;24.20;74.70;;;;;;5016774;28;20046;-79
2022/07/24 10:29:06;;;;;;;154.90;143.50;;;24.30;74.80;;;;;;5033576;28;21049;-84
2022/07/24 10:31:33;;;;;;;160.75;149.15;;;24.40;74.60;;;;;;5034065;28;20046;-81
2022/07/24 10:34:04;;;;;;;156.13;144.73;;;24.40;75.10;;;;;;5032986;28;20058;-79
2022/07/24 10:36:40;;;;;;;159.50;147.80;;;24.40;76.00;;;;;;5033347;28;20492;-81
2022/07/24 10:39:13;;;;;;;157.13;145.70;;;24.60;73.80;;;;;;5017869;28;20137;-81
2022/07/24 10:41:40;;;;;;;163.02;150.82;;;24.60;73.70;;;;;;5035322;28;20133;-79
2022/07/24 10:44:16;;;;;;;156.63;145.02;;;24.60;73.60;;;;;;5034220;28;20069;-81
2022/07/24 10:47:05;;;;;;;161.25;149.43;;;24.70;74.90;;;;;;5017460;28;20112;-82
2022/07/24 10:49:37;;;;;;;158.45;146.70;;;24.70;74.60;;;;;;5033757;28;20124;-86
2022/07/24 10:52:06;;;;;;;152.95;141.55;;;24.80;74.50;;;;;;5033925;28;20543;-83
2022/07/24 10:54:33;;;;;;;151.02;139.82;;;24.80;73.50;;;;;;5017232;28;20046;-84
2022/07/24 10:57:00;;;;;;;150.65;139.45;;;24.80;73.70;;;;;;5034076;28;20144;-78
2022/07/24 10:59:34;;;;;;;149.05;137.93;;;24.90;73.40;;;;;;5017072;28;20050;-81
2022/07/24 11:02:27;;;;;;;146.65;135.55;;;24.90;73.00;;;;;;5033714;28;20061;-80
2022/07/24 11:05:26;;;;;;;156.70;145.48;;;24.90;71.40;;;;;;5033779;28;20058;-77
2022/07/24 11:08:39;;;;;;;154.82;143.52;;;24.80;71.30;;;;;;5034387;28;20056;-83
2022/07/24 11:11:09;;;;;;;153.25;141.52;;;24.90;72.40;;;;;;5033641;28;20464;-79
2022/07/24 11:13:45;;;;;;;155.95;144.75;;;24.90;72.60;;;;;;5033328;28;20158;-79
2022/07/24 11:16:18;;;;;;;156.43;145.23;;;24.90;72.90;;;;;;5033599;28;20132;-82
2022/07/24 11:19:19;;;;;;;160.13;148.32;;;25.00;72.20;;;;;;5033337;28;20054;-83
2022/07/24 11:21:48;;;;;;;159.05;147.45;;;25.00;71.60;;;;;;5013583;28;20099;-86
2022/07/24 11:24:19;;;;;;;161.45;149.85;;;25.10;71.50;;;;;;5000875;28;20096;-83
2022/07/24 11:26:52;;;;;;;160.95;149.48;;;25.10;71.70;;;;;;5016787;28;20056;-85
2022/07/24 11:29:22;;;;;;;170.20;157.95;;;25.20;71.80;;;;;;5016725;28;20069;-81
2022/07/24 11:31:51;;;;;;;162.07;150.48;;;25.20;71.50;;;;;;5016845;28;20045;-79
2022/07/24 11:34:19;;;;;;;165.63;153.82;;;25.30;71.20;;;;;;5035657;28;20137;-83
2022/07/24 11:36:48;;;;;;;160.50;148.90;;;25.40;70.60;;;;;;5033926;28;20097;-84
2022/07/24 11:39:15;;;;;;;164.88;153.15;;;25.40;71.20;;;;;;5034131;28;20050;-83
2022/07/24 11:41:46;;;;;;;172.48;159.95;;;25.50;71.40;;;;;;5018789;28;20077;-85
2022/07/24 11:44:16;;;;;;;171.35;158.65;;;25.50;69.40;;;;;;5016672;28;20057;-82
2022/07/24 11:46:43;;;;;;;170.73;158.27;;;25.50;69.40;;;;;;5032119;28;20054;-78
2022/07/24 11:49:11;;;;;;;168.10;156.20;;;25.60;69.90;;;;;;5032534;28;20054;-80
2022/07/24 11:51:44;;;;;;;165.23;153.52;;;25.60;69.20;;;;;;5032435;28;20046;-84
2022/07/24 11:54:13;;;;;;;163.95;152.45;;;25.70;68.20;;;;;;5032575;28;20062;-76
2022/07/24 11:56:40;;;;;;;166.50;154.60;;;25.70;67.70;;;;;;5032255;28;20053;-80
2022/07/24 11:59:21;;;;;;;169.70;157.70;;;25.80;66.70;;;;;;5031532;28;20550;-79
2022/07/24 12:01:49;;;;;;;163.80;152.20;;;25.90;66.20;;;;;;5051729;28;20099;-79
2022/07/24 12:04:20;;;;;;;164.10;152.60;;;25.90;65.20;;;;;;5034916;28;20041;-77
2022/07/24 12:06:47;;;;;;;161.52;150.23;;;26.00;64.20;;;;;;5051489;28;20056;-81
2022/07/24 12:09:14;;;;;;;167.43;155.77;;;26.00;65.10;;;;;;5045002;28;20078;-78
2022/07/24 12:11:44;;;;;;;161.77;150.57;;;26.00;67.30;;;;;;5035784;28;20060;-81
2022/07/24 12:14:15;;;;;;;158.75;147.70;;;26.10;65.80;;;;;;5032134;28;20062;-78
2022/07/24 12:16:42;;;;;;;160.35;149.27;;;26.20;65.10;;;;;;5032190;28;20096;-80